This is the latest recevied weather packets stored in our database for station/object WC4PEM-11. If no packets are shown the sender has not sent any weather packets the latest 10 day(s).
| Time | Temp. | Humidity | Pressure | Rain* | Wind** | Luminosity | Snow |
|---|---|---|---|---|---|---|---|
| 1777838289 | 24.44° C | 70% | 1016 hPa | 0 mm | - | - | - |
| 1777837989 | 24.44° C | 70% | 1016 hPa | 0 mm | - | - | - |
| 1777837689 | 24.44° C | 71% | 1016.1 hPa | 0 mm | - | - | - |
| 1777837389 | 23.89° C | 70% | 1016.2 hPa | 0 mm | - | - | - |
| 1777837089 | 24.44° C | 71% | 1016.1 hPa | 0 mm | - | - | - |
| 1777836789 | 23.89° C | 72% | 1016.2 hPa | 0 mm | - | - | - |
| 1777836697 | 23.89° C | 71% | 1016.3 hPa | 0 mm | - | - | - |
| 1777836489 | 23.89° C | 71% | 1016.3 hPa | 0 mm | - | - | - |
| 1777836189 | 24.44° C | 72% | 1016.5 hPa | 0 mm | - | - | - |
| 1777835889 | 23.89° C | 71% | 1016.6 hPa | 0 mm | - | - | - |
| 1777835589 | 23.89° C | 72% | 1016.6 hPa | 0 mm | - | - | - |
| 1777835289 | 24.44° C | 71% | 1016.8 hPa | 0 mm | - | - | - |
| 1777835131 | 24.44° C | 72% | 1016.9 hPa | 0 mm | - | - | - |
| 1777834989 | 24.44° C | 71% | 1016.9 hPa | 0 mm | - | - | - |
| 1777834689 | 24.44° C | 72% | 1016.9 hPa | 0 mm | - | - | - |
| 1777834576 | 23.89° C | 71% | 1017.1 hPa | 0 mm | - | - | - |
| 1777834389 | 23.89° C | 71% | 1017.1 hPa | 0 mm | - | - | - |
| 1777834093 | 23.89° C | 73% | 1017.1 hPa | 0 mm | - | - | - |
| 1777834089 | 23.89° C | 73% | 1017.1 hPa | 0 mm | - | - | - |
| 1777833789 | 23.89° C | 73% | 1017.1 hPa | 0 mm | - | - | - |
| 1777833489 | 23.33° C | 75% | 1017.2 hPa | 0 mm | - | - | - |
| 1777833473 | 23.33° C | 73% | 1017.3 hPa | 0 mm | - | - | - |
| 1777833189 | 23.33° C | 73% | 1017.3 hPa | 0 mm | - | - | - |
| 1777833126 | 22.22° C | 77% | 1017.6 hPa | 0 mm | - | - | - |
| 1777832889 | 23.33° C | 76% | 1017.4 hPa | 0 mm | - | - | - |
* Rain latest hour (hover to see other rain measurements)
** Current wind speed in m/s (hover to see current wind gust speed)